Stations météo

Publicité
Puerto Plata, République Dominicaine (78457): Température de l'air & dewpoint: 13.02.2018 20:00:00 - 19.02.2018 20:00:00 (AST)Puerto Plata, République Dominicaine (78457): Vitesse du vent: 13.02.2018 20:00:00 - 19.02.2018 20:00:00 (AST)Puerto Plata, République Dominicaine (78457): Direction du vent: 13.02.2018 20:00:00 - 19.02.2018 20:00:00 (AST)Puerto Plata, République Dominicaine (78457): visibility: 13.02.2018 20:00:00 - 19.02.2018 20:00:00 (AST)
Date & Time tt [°C] td [°C] ff [km/h] ff [knt] dd vv [km]
19.02.2018 20:00:00 24,0 22,0 15 8 E 10
19.02.2018 19:00:00 25,0 21,0 18 10 E 10
19.02.2018 18:00:00 26,0 22,0 22 12 E 10
19.02.2018 17:00:00 27,0 22,0 28 15 E 10
19.02.2018 16:00:00 28,0 21,0 24 13 E 10
19.02.2018 15:00:00 28,0 21,0 24 13 E 10
19.02.2018 14:00:00 28,0 21,0 18 10 E 10
19.02.2018 13:00:00 27,0 22,0 18 10 E 10
19.02.2018 12:00:00 27,0 22,0 28 15 E 10
19.02.2018 11:00:00 25,0 22,0 28 15 E 10
19.02.2018 10:00:00 24,0 22,0 9 5 ESE 8
19.02.2018 09:00:00 23,0 22,0 9 5 ESE 10
19.02.2018 08:00:00 20,0 20,0 0 0 N 10
19.02.2018 07:00:00 18,0 18,0 0 0 N 10
19.02.2018 06:00:00 - - - - - -
19.02.2018 05:00:00 19,0 19,0 0 0 N 10
19.02.2018 04:00:00 - - - - - -
19.02.2018 03:00:00 - - - - - -
19.02.2018 02:00:00 20,0 19,0 0 0 N 10
19.02.2018 01:00:00 - - - - - -
19.02.2018 00:00:00 - - - - - -
18.02.2018 23:00:00 21,0 21,0 0 0 N 10
18.02.2018 22:00:00 - - - - - -
18.02.2018 21:00:00 - - - - - -
18.02.2018 20:00:00 21,0 21,0 0 0 N 10
18.02.2018 19:00:00 22,0 21,0 9 5 ESE 10
18.02.2018 18:00:00 22,0 22,0 18 10 SSE 8
18.02.2018 17:00:00 24,0 22,0 9 5 ESE 8
18.02.2018 16:00:00 24,0 22,0 9 5 SSE 8
18.02.2018 15:00:00 24,0 22,0 18 10 E 8
18.02.2018 14:00:00 25,0 21,0 18 10 E 10
18.02.2018 13:00:00 25,0 22,0 11 6 ENE 10
18.02.2018 12:00:00 24,0 22,0 9 5 E 10
18.02.2018 11:00:00 24,0 22,0 9 5 ENE 10
18.02.2018 10:00:00 22,0 21,0 11 6 ENE 8
18.02.2018 09:00:00 21,0 20,0 15 8 E 10
18.02.2018 08:00:00 19,0 19,0 0 0 N 10
18.02.2018 07:00:00 20,0 19,0 0 0 N 10
18.02.2018 06:00:00 - - - - - -
18.02.2018 05:00:00 - - - - - -
18.02.2018 04:00:00 - - - - - -
18.02.2018 03:00:00 - - - - - -
18.02.2018 02:00:00 21,0 20,0 0 0 N 10
18.02.2018 01:00:00 - - - - - -
18.02.2018 00:00:00 - - - - - -
17.02.2018 23:00:00 21,0 20,0 0 0 N 10
17.02.2018 22:00:00 - - - - - -
17.02.2018 21:00:00 - - - - - -
17.02.2018 20:00:00 24,0 19,0 18 10 E 10
17.02.2018 19:00:00 24,0 20,0 15 8 E 10
17.02.2018 18:00:00 25,0 20,0 18 10 E 10
17.02.2018 17:00:00 26,0 20,0 18 10 E 10
17.02.2018 16:00:00 26,0 21,0 18 10 E 10
17.02.2018 15:00:00 25,0 21,0 18 10 E 10
17.02.2018 14:00:00 26,0 21,0 28 15 E 10
17.02.2018 13:00:00 25,0 22,0 18 10 E 8
17.02.2018 12:00:00 24,0 22,0 13 7 ENE 8
17.02.2018 11:00:00 26,0 21,0 18 10 E 10
17.02.2018 10:00:00 26,0 20,0 0 0 N 10
17.02.2018 09:00:00 22,0 20,0 0 0 N 10
17.02.2018 08:00:00 20,0 19,0 0 0 N 10
17.02.2018 07:00:00 19,0 19,0 0 0 N 10
17.02.2018 06:00:00 - - - - - -
17.02.2018 05:00:00 20,0 19,0 0 0 N 10
17.02.2018 04:00:00 - - - - - -
17.02.2018 03:00:00 - - - - - -
17.02.2018 02:00:00 20,0 19,0 0 0 N 10
17.02.2018 01:00:00 - - - - - -
17.02.2018 00:00:00 - - - - - -
16.02.2018 23:00:00 22,0 21,0 0 0 N 10
16.02.2018 22:00:00 - - - - - -
16.02.2018 21:00:00 - - - - - -
16.02.2018 20:00:00 24,0 21,0 0 0 N 10
16.02.2018 19:00:00 24,0 20,0 9 5 E 10
16.02.2018 18:00:00 25,0 21,0 18 10 E 10
16.02.2018 17:00:00 26,0 20,0 24 13 E 10
16.02.2018 16:00:00 27,0 21,0 24 13 E 10
16.02.2018 15:00:00 27,0 21,0 18 10 E 10
16.02.2018 14:00:00 26,0 21,0 18 10 E 10
16.02.2018 13:00:00 26,0 21,0 18 10 E 10
16.02.2018 12:00:00 25,0 21,0 18 10 E 10
16.02.2018 11:00:00 26,0 22,0 0 0 N 10
16.02.2018 10:00:00 25,0 22,0 0 0 N 10
16.02.2018 09:00:00 22,0 21,0 0 0 N 10
16.02.2018 08:00:00 21,0 20,0 0 0 N 10
16.02.2018 07:00:00 21,0 21,0 0 0 N 10
16.02.2018 06:00:00 - - - - - -
16.02.2018 05:00:00 21,0 21,0 0 0 N 10
16.02.2018 04:00:00 - - - - - -
16.02.2018 03:00:00 - - - - - -
16.02.2018 02:00:00 21,0 21,0 0 0 N 10
16.02.2018 01:00:00 - - - - - -
16.02.2018 00:00:00 - - - - - -
15.02.2018 23:00:00 23,0 22,0 0 0 N 10
15.02.2018 22:00:00 - - - - - -
15.02.2018 21:00:00 - - - - - -
15.02.2018 20:00:00 23,0 22,0 0 0 N 10
15.02.2018 19:00:00 26,0 24,0 15 8 E 10
15.02.2018 18:00:00 26,0 23,0 18 10 E 10
15.02.2018 17:00:00 26,0 22,0 18 10 E 10
15.02.2018 16:00:00 27,0 22,0 18 10 E 10
15.02.2018 15:00:00 27,0 21,0 22 12 E 10
15.02.2018 14:00:00 27,0 22,0 22 12 ENE 10
15.02.2018 13:00:00 27,0 22,0 16 9 ENE 10
15.02.2018 12:00:00 26,0 22,0 18 10 E 8
15.02.2018 11:00:00 25,0 23,0 9 5 E 8
15.02.2018 10:00:00 26,0 22,0 11 6 E 10
15.02.2018 09:00:00 21,0 21,0 0 0 N 10
15.02.2018 08:00:00 21,0 20,0 0 0 N 8
15.02.2018 07:00:00 20,0 20,0 0 0 N 8
15.02.2018 06:00:00 - - - - - -
15.02.2018 05:00:00 20,0 20,0 0 0 N 8
15.02.2018 04:00:00 - - - - - -
15.02.2018 03:00:00 - - - - - -
15.02.2018 02:00:00 21,0 20,0 0 0 N 8
15.02.2018 01:00:00 - - - - - -
15.02.2018 00:00:00 - - 0 0 N 10
14.02.2018 23:00:00 21,0 20,0 0 0 N 10
14.02.2018 22:00:00 - - - - - -
14.02.2018 21:00:00 - - - - - -
14.02.2018 20:00:00 23,0 21,0 0 0 N 8
14.02.2018 19:00:00 23,0 22,0 13 7 ENE 10
14.02.2018 18:00:00 24,0 21,0 9 5 ENE 10
14.02.2018 17:00:00 26,0 21,0 29 16 E 6
14.02.2018 16:00:00 26,0 22,0 18 10 ENE 10
14.02.2018 15:00:00 26,0 22,0 18 10 ENE 10
14.02.2018 14:00:00 26,0 20,0 18 10 E 10
14.02.2018 13:00:00 27,0 22,0 18 10 ENE 10
14.02.2018 12:00:00 26,0 21,0 18 10 E 10
14.02.2018 11:00:00 26,0 21,0 22 12 ENE 10
14.02.2018 10:00:00 23,0 21,0 18 10 E 10
14.02.2018 09:00:00 22,0 21,0 0 0 N 10
14.02.2018 08:00:00 21,0 20,0 0 0 N 10
14.02.2018 07:00:00 21,0 21,0 0 0 N 8
14.02.2018 06:00:00 - - - - - -
14.02.2018 05:00:00 21,0 21,0 0 0 N 8
14.02.2018 04:00:00 - - - - - -
14.02.2018 03:00:00 - - - - - -
14.02.2018 02:00:00 21,0 21,0 0 0 N 6
14.02.2018 01:00:00 - - - - - -
14.02.2018 00:00:00 - - - - - -
13.02.2018 23:00:00 23,0 21,0 0 0 N 10
13.02.2018 22:00:00 - - - - - -
13.02.2018 21:00:00 - - - - - -
13.02.2018 20:00:00 24,0 21,0 9 5 E 10

tt = Température de l'air
td = dewpoint
ff = Vitesse du vent
dd = Direction du vent
vv = visibility

stations d'obs. à proximité